createdAt,value
2023-03-28T00:00:48.083Z,68.06
2023-03-28T00:03:19.396Z,68.22
2023-03-28T00:05:49.237Z,68.42
2023-03-28T00:08:17.902Z,68.24
2023-03-28T00:10:45.458Z,68.40
2023-03-28T00:13:14.185Z,68.49
2023-03-28T00:15:42.500Z,69.03
2023-03-28T00:18:13.325Z,69.14
2023-03-28T00:20:43.651Z,69.57
2023-03-28T00:23:12.327Z,69.98
2023-03-28T00:25:41.844Z,69.67
2023-03-28T00:28:09.298Z,69.77
2023-03-28T00:30:36.194Z,70.15
2023-03-28T00:33:05.283Z,70.66
2023-03-28T00:35:32.919Z,70.59
2023-03-28T00:37:59.801Z,70.72
2023-03-28T00:40:27.550Z,71.10
2023-03-28T00:42:55.345Z,71.05
2023-03-28T00:45:22.871Z,71.31
2023-03-28T00:47:54.943Z,71.87
2023-03-28T00:50:31.597Z,72.12
2023-03-28T00:53:03.289Z,71.67
2023-03-28T00:55:31.575Z,72.41
2023-03-28T00:57:58.725Z,72.27
2023-03-28T01:00:26.212Z,72.76
2023-03-28T01:02:58.515Z,72.75
2023-03-28T01:05:29.301Z,73.01
2023-03-28T01:08:01.704Z,73.12
2023-03-28T01:10:30.555Z,73.51
2023-03-28T01:12:58.088Z,73.02
2023-03-28T01:15:25.886Z,73.42
2023-03-28T01:18:02.897Z,73.17
2023-03-28T01:20:55.406Z,73.52
2023-03-28T01:24:10.905Z,73.21
2023-03-28T01:26:51.008Z,73.35
2023-03-28T01:29:46.173Z,73.50
2023-03-28T01:32:54.698Z,73.49
2023-03-28T01:35:57.518Z,73.65
2023-03-28T01:38:37.904Z,73.64
2023-03-28T01:41:29.886Z,74.13
2023-03-28T01:44:20.354Z,74.06
2023-03-28T01:47:01.599Z,73.97
2023-03-28T01:49:32.591Z,74.11
2023-03-28T01:52:17.644Z,74.14
2023-03-28T01:55:07.504Z,74.22
2023-03-28T01:57:50.993Z,74.41
2023-03-28T02:00:24.739Z,74.52
2023-03-28T02:03:35.894Z,74.11
2023-03-28T02:06:21.191Z,74.17
2023-03-28T02:08:50.617Z,74.39
2023-03-28T02:11:35.803Z,74.30
2023-03-28T02:14:14.385Z,74.20
2023-03-28T02:17:00.636Z,74.56
2023-03-28T02:19:53.401Z,74.80
2023-03-28T02:23:06.360Z,74.60
2023-03-28T02:25:53.384Z,74.92
2023-03-28T02:28:42.533Z,74.55
2023-03-28T02:31:28.729Z,74.92
2023-03-28T02:33:56.736Z,74.93
2023-03-28T02:36:35.860Z,74.93
2023-03-28T02:39:28.934Z,75.16
2023-03-28T02:42:20.028Z,75.42
2023-03-28T02:45:10.854Z,75.45
2023-03-28T02:48:01.197Z,75.30
2023-03-28T02:50:50.030Z,75.41
2023-03-28T02:53:27.600Z,75.22
2023-03-28T02:55:59.055Z,75.69
2023-03-28T02:58:53.542Z,75.96
2023-03-28T03:01:21.254Z,75.71
2023-03-28T03:03:50.118Z,75.52
2023-03-28T03:06:18.060Z,75.25
2023-03-28T03:08:45.014Z,75.86
2023-03-28T03:11:11.936Z,75.52
2023-03-28T03:13:38.898Z,75.68
2023-03-28T03:16:06.375Z,75.79
2023-03-28T03:18:34.950Z,76.01
2023-03-28T03:21:01.958Z,75.60
2023-03-28T03:23:29.310Z,75.51
2023-03-28T03:25:58.795Z,75.71
2023-03-28T03:28:32.234Z,76.26
2023-03-28T03:31:02.326Z,75.75
2023-03-28T03:33:49.217Z,76.06
2023-03-28T03:36:20.479Z,75.75
2023-03-28T03:38:47.671Z,76.17
2023-03-28T03:41:20.441Z,75.85
2023-03-28T03:43:48.795Z,76.21
2023-03-28T03:46:15.697Z,76.05
2023-03-28T03:48:49.648Z,76.22
2023-03-28T03:51:17.960Z,76.33
2023-03-28T03:53:46.824Z,76.26
2023-03-28T03:56:17.753Z,76.05
2023-03-28T03:58:56.705Z,76.05
2023-03-28T04:01:30.181Z,76.16
2023-03-28T04:04:17.592Z,76.28
2023-03-28T04:07:04.439Z,75.91
2023-03-28T04:09:32.336Z,76.42
2023-03-28T04:12:02.146Z,76.40
2023-03-28T04:14:30.484Z,76.33
2023-03-28T04:17:21.390Z,76.57
2023-03-28T04:19:49.743Z,76.68
2023-03-28T04:22:18.503Z,76.44
2023-03-28T04:24:53.529Z,76.64
2023-03-28T04:27:35.508Z,76.27
2023-03-28T04:30:03.577Z,76.46
2023-03-28T04:32:50.622Z,76.44
2023-03-28T04:35:24.288Z,76.39
2023-03-28T04:37:53.906Z,76.62
2023-03-28T04:40:22.125Z,76.65
2023-03-28T04:43:01.168Z,76.83
2023-03-28T04:45:38.248Z,76.65
2023-03-28T04:48:15.032Z,77.11
2023-03-28T04:50:41.921Z,76.60
2023-03-28T04:53:09.221Z,76.51
2023-03-28T04:55:40.601Z,76.50
2023-03-28T04:58:21.446Z,76.53
2023-03-28T05:00:49.864Z,77.10
2023-03-28T05:03:37.922Z,76.95
2023-03-28T05:06:06.704Z,76.63
2023-03-28T05:08:33.828Z,76.75
2023-03-28T05:11:01.457Z,76.42
2023-03-28T05:13:28.611Z,76.44
2023-03-28T05:16:05.414Z,76.46
2023-03-28T05:18:46.155Z,76.02
2023-03-28T05:21:13.878Z,76.18
2023-03-28T05:23:41.261Z,75.43
2023-03-28T05:26:17.584Z,76.30
2023-03-28T05:28:44.686Z,75.59
2023-03-28T05:31:12.897Z,75.62
2023-03-28T05:33:40.016Z,75.67
2023-03-28T05:36:07.419Z,75.55
2023-03-28T05:38:34.406Z,74.91
2023-03-28T05:41:09.011Z,75.37
2023-03-28T05:43:35.929Z,75.22
2023-03-28T05:46:03.293Z,75.11
2023-03-28T05:48:38.144Z,74.40
2023-03-28T05:51:05.379Z,75.07
2023-03-28T05:53:34.467Z,75.03
2023-03-28T05:56:01.525Z,75.07
2023-03-28T05:58:29.605Z,74.86
2023-03-28T06:00:56.592Z,74.56
2023-03-28T06:03:25.952Z,74.28
2023-03-28T06:05:53.013Z,74.08
2023-03-28T06:08:22.372Z,74.24
2023-03-28T06:10:49.630Z,73.71
2023-03-28T06:13:28.195Z,73.67
2023-03-28T06:15:55.456Z,73.92
2023-03-28T06:18:30.131Z,73.42
2023-03-28T06:20:57.071Z,73.29
2023-03-28T06:23:24.616Z,73.63
2023-03-28T06:25:51.875Z,73.45
2023-03-28T06:28:20.596Z,73.25
2023-03-28T06:31:07.574Z,72.80
2023-03-28T06:33:35.302Z,72.65
2023-03-28T06:36:04.052Z,72.90
2023-03-28T06:38:34.373Z,72.66
2023-03-28T06:41:01.632Z,72.55
2023-03-28T06:43:31.166Z,72.61
2023-03-28T06:46:08.973Z,72.51
2023-03-28T06:48:41.846Z,72.32
2023-03-28T06:51:28.983Z,72.60
2023-03-28T06:53:56.005Z,72.48
2023-03-28T06:56:27.376Z,72.48
2023-03-28T06:58:56.078Z,72.71
2023-03-28T07:01:26.257Z,72.44
2023-03-28T07:04:05.803Z,72.22
2023-03-28T07:06:34.653Z,72.32
2023-03-28T07:09:02.233Z,72.31
2023-03-28T07:11:44.614Z,72.21
2023-03-28T07:14:11.836Z,72.36
2023-03-28T07:16:38.752Z,72.00
2023-03-28T07:19:05.998Z,72.05
2023-03-28T07:21:36.708Z,72.06
2023-03-28T07:24:04.657Z,72.07
2023-03-28T07:26:54.839Z,72.13
2023-03-28T07:29:28.519Z,72.18
2023-03-28T07:31:56.147Z,71.88
2023-03-28T07:34:25.338Z,71.63
2023-03-28T07:36:52.434Z,71.95
2023-03-28T07:39:40.064Z,71.69
2023-03-28T07:42:12.826Z,71.75
2023-03-28T07:44:42.266Z,71.64
2023-03-28T07:47:10.241Z,71.59
2023-03-28T07:49:37.136Z,71.70
2023-03-28T07:52:05.564Z,71.84
2023-03-28T07:54:33.460Z,71.50
2023-03-28T07:57:00.813Z,71.34
2023-03-28T07:59:50.453Z,71.21
2023-03-28T08:02:18.189Z,71.23
2023-03-28T08:04:45.995Z,70.98
2023-03-28T08:07:15.735Z,71.09
2023-03-28T08:09:45.241Z,71.09
2023-03-28T08:12:17.255Z,70.93
2023-03-28T08:14:44.244Z,70.77
2023-03-28T08:17:11.466Z,70.69
2023-03-28T08:19:38.612Z,70.99
2023-03-28T08:22:19.110Z,70.96
2023-03-28T08:25:01.120Z,70.82
2023-03-28T08:27:28.274Z,70.87
2023-03-28T08:29:59.609Z,70.84
2023-03-28T08:32:28.559Z,70.68
2023-03-28T08:34:58.656Z,70.81
2023-03-28T08:37:27.979Z,70.73
2023-03-28T08:39:56.644Z,70.89
2023-03-28T08:42:36.455Z,70.86
2023-03-28T08:45:43.536Z,70.81
2023-03-28T08:48:24.527Z,70.91
2023-03-28T08:51:03.111Z,70.79
2023-03-28T08:53:39.898Z,70.90
2023-03-28T08:56:08.617Z,70.69
2023-03-28T08:59:02.866Z,70.74
2023-03-28T09:01:32.926Z,70.70
2023-03-28T09:04:01.422Z,70.54
2023-03-28T09:06:38.242Z,70.54
2023-03-28T09:09:45.332Z,70.30
2023-03-28T09:12:59.674Z,70.50
2023-03-28T09:16:09.075Z,70.04
2023-03-28T09:19:02.712Z,70.21
2023-03-28T09:21:43.533Z,69.97
2023-03-28T09:24:34.507Z,69.97
2023-03-28T09:27:37.864Z,69.75
2023-03-28T09:30:20.839Z,69.64
2023-03-28T09:32:49.680Z,69.49
2023-03-28T09:35:22.895Z,69.31
2023-03-28T09:37:53.768Z,69.37
2023-03-28T09:40:28.746Z,68.96
2023-03-28T09:43:44.134Z,69.20
2023-03-28T09:46:36.912Z,68.96
2023-03-28T09:49:25.650Z,69.05
2023-03-28T09:51:57.469Z,69.14
2023-03-28T09:54:33.811Z,69.06
2023-03-28T09:57:04.412Z,68.93
2023-03-28T09:59:51.307Z,68.93
2023-03-28T10:02:28.471Z,68.85
2023-03-28T10:04:58.434Z,68.70
2023-03-28T10:07:45.776Z,68.85
2023-03-28T10:10:25.225Z,68.64
2023-03-28T10:13:05.878Z,68.41
2023-03-28T10:15:48.506Z,68.41
2023-03-28T10:18:35.925Z,68.42
2023-03-28T10:21:22.595Z,68.40
2023-03-28T10:24:04.149Z,68.43
2023-03-28T10:26:31.707Z,68.57
2023-03-28T10:29:04.722Z,68.54
2023-03-28T10:31:34.216Z,68.29
2023-03-28T10:34:34.972Z,68.83
2023-03-28T10:37:29.649Z,68.51
2023-03-28T10:40:30.369Z,68.60
2023-03-28T10:43:17.816Z,68.80
2023-03-28T10:46:21.269Z,68.50
2023-03-28T10:49:07.144Z,68.40
2023-03-28T10:51:37.897Z,68.24
2023-03-28T10:54:32.109Z,68.49
2023-03-28T10:57:12.702Z,68.38
2023-03-28T10:59:57.579Z,68.29
2023-03-28T11:02:39.494Z,68.13
2023-03-28T11:05:35.196Z,67.80
2023-03-28T11:08:36.454Z,67.58
2023-03-28T11:11:40.836Z,67.25
2023-03-28T11:14:20.817Z,67.00
2023-03-28T11:17:03.056Z,66.99
2023-03-28T11:20:18.588Z,66.81
2023-03-28T11:23:22.966Z,66.81
2023-03-28T11:26:26.908Z,66.76
2023-03-28T11:29:44.186Z,66.76
2023-03-28T11:32:21.703Z,66.85
2023-03-28T11:35:05.605Z,66.99
2023-03-28T11:37:43.885Z,66.94
2023-03-28T11:40:25.856Z,66.81
2023-03-28T11:43:04.780Z,66.73
2023-03-28T11:45:50.318Z,66.71
2023-03-28T11:48:28.325Z,66.56
2023-03-28T11:51:10.162Z,66.48
2023-03-28T11:54:05.601Z,66.17
2023-03-28T11:56:56.835Z,66.00
2023-03-28T12:00:01.409Z,66.14
2023-03-28T12:02:42.766Z,66.16
2023-03-28T12:05:24.577Z,65.98
2023-03-28T12:07:56.761Z,65.85
2023-03-28T12:10:38.712Z,65.95
2023-03-28T12:14:08.855Z,65.84
2023-03-28T12:16:47.558Z,65.57
2023-03-28T12:19:26.443Z,65.77
2023-03-28T12:22:13.137Z,65.60
2023-03-28T12:24:48.788Z,65.41
2023-03-28T12:27:43.010Z,65.08
2023-03-28T12:30:26.456Z,64.93
2023-03-28T12:33:09.100Z,64.98
2023-03-28T12:35:55.395Z,64.87
2023-03-28T12:38:42.539Z,64.95
2023-03-28T12:41:32.582Z,64.54
2023-03-28T12:44:13.119Z,64.69
2023-03-28T12:47:05.251Z,64.72
2023-03-28T12:49:43.825Z,64.57
2023-03-28T12:52:18.033Z,64.74
2023-03-28T12:55:01.627Z,64.81
2023-03-28T12:57:46.154Z,65.10
2023-03-28T13:00:58.861Z,65.08
2023-03-28T13:04:25.884Z,65.43
2023-03-28T13:07:41.254Z,65.38
2023-03-28T13:10:25.485Z,65.40
2023-03-28T13:13:21.043Z,65.44
2023-03-28T13:16:15.301Z,65.51
2023-03-28T13:19:10.271Z,65.13
2023-03-28T13:21:51.654Z,65.26
2023-03-28T13:24:38.996Z,64.98
2023-03-28T13:27:17.164Z,64.92
2023-03-28T13:29:51.958Z,64.60
2023-03-28T13:32:22.568Z,64.60
2023-03-28T13:34:54.956Z,64.35
2023-03-28T13:37:27.460Z,64.28
2023-03-28T13:40:01.225Z,64.09
2023-03-28T13:42:33.483Z,63.85
2023-03-28T13:45:06.677Z,63.53
2023-03-28T13:47:39.074Z,63.35
2023-03-28T13:50:26.698Z,63.25
2023-03-28T13:52:54.135Z,63.09
2023-03-28T13:55:26.813Z,63.05
2023-03-28T13:57:55.967Z,62.72
2023-03-28T14:00:26.189Z,62.72
2023-03-28T14:03:02.283Z,62.55
2023-03-28T14:05:31.916Z,62.55
2023-03-28T14:08:22.343Z,62.10
2023-03-28T14:10:52.317Z,61.94
2023-03-28T14:13:22.703Z,62.00
2023-03-28T14:15:51.943Z,61.82
2023-03-28T14:18:33.890Z,62.02
2023-03-28T14:21:01.537Z,61.74
2023-03-28T14:23:38.067Z,61.84
2023-03-28T14:26:16.824Z,61.37
2023-03-28T14:28:45.450Z,61.21
2023-03-28T14:31:29.749Z,60.94
2023-03-28T14:33:58.728Z,61.18
2023-03-28T14:36:31.198Z,60.96
2023-03-28T14:39:06.748Z,60.75
2023-03-28T14:41:35.511Z,60.54
2023-03-28T14:44:05.889Z,60.71
2023-03-28T14:46:34.133Z,60.52
2023-03-28T14:49:02.960Z,60.13
2023-03-28T14:51:40.489Z,60.11
2023-03-28T14:54:12.254Z,59.87
2023-03-28T14:56:39.174Z,59.84
2023-03-28T14:59:07.680Z,59.65
2023-03-28T15:01:34.767Z,59.75
2023-03-28T15:04:05.891Z,59.83
2023-03-28T15:06:33.550Z,59.53
2023-03-28T15:09:04.268Z,58.99
2023-03-28T15:11:34.254Z,59.19
2023-03-28T15:14:11.411Z,59.23
2023-03-28T15:16:40.847Z,59.12
2023-03-28T15:19:27.260Z,58.88
2023-03-28T15:22:14.633Z,58.57
2023-03-28T15:24:41.849Z,58.38
2023-03-28T15:27:16.589Z,58.37
2023-03-28T15:29:43.427Z,58.06
2023-03-28T15:32:17.488Z,58.11
2023-03-28T15:35:06.255Z,57.95
2023-03-28T15:37:43.826Z,57.79
2023-03-28T15:40:29.328Z,57.80
2023-03-28T15:42:56.411Z,57.38
2023-03-28T15:45:38.961Z,57.52
2023-03-28T15:48:06.232Z,57.36
2023-03-28T15:50:36.838Z,56.96
2023-03-28T15:53:06.922Z,57.17
2023-03-28T15:55:34.351Z,57.19
2023-03-28T15:58:03.569Z,57.05
2023-03-28T16:00:45.055Z,56.92
2023-03-28T16:03:34.461Z,56.74
2023-03-28T16:06:30.742Z,56.79
2023-03-28T16:09:19.920Z,56.72
2023-03-28T16:11:49.934Z,56.73
2023-03-28T16:14:36.923Z,56.76
2023-03-28T16:17:29.151Z,56.55
2023-03-28T16:20:21.788Z,56.56
2023-03-28T16:22:51.232Z,56.45
2023-03-28T16:25:18.150Z,56.53
2023-03-28T16:27:45.077Z,56.33
2023-03-28T16:30:26.567Z,56.06
2023-03-28T16:32:53.517Z,56.35
2023-03-28T16:35:20.820Z,56.20
2023-03-28T16:37:47.648Z,55.93
2023-03-28T16:40:15.708Z,55.97
2023-03-28T16:42:42.799Z,55.94
2023-03-28T16:45:13.056Z,55.88
2023-03-28T16:47:40.836Z,55.97
2023-03-28T16:50:09.676Z,55.74
2023-03-28T16:53:02.750Z,55.93
2023-03-28T16:55:32.517Z,55.86
2023-03-28T16:58:00.552Z,55.78
2023-03-28T17:00:37.514Z,55.67
2023-03-28T17:03:05.498Z,55.85
2023-03-28T17:05:32.600Z,55.74
2023-03-28T17:08:00.889Z,55.60
2023-03-28T17:10:29.542Z,55.64
2023-03-28T17:12:56.832Z,55.58
2023-03-28T17:15:23.681Z,55.41
2023-03-28T17:17:50.582Z,55.54
2023-03-28T17:20:17.895Z,55.54
2023-03-28T17:22:46.435Z,55.39
2023-03-28T17:25:16.828Z,55.55
2023-03-28T17:27:44.009Z,55.31
2023-03-28T17:30:12.018Z,55.32
2023-03-28T17:32:40.035Z,55.53
2023-03-28T17:35:08.565Z,55.11
2023-03-28T17:37:39.366Z,55.01
2023-03-28T17:40:07.050Z,55.12
2023-03-28T17:42:33.922Z,55.12
2023-03-28T17:45:01.304Z,55.40
2023-03-28T17:47:28.221Z,55.02
2023-03-28T17:49:57.074Z,55.16
2023-03-28T17:52:24.557Z,55.04
2023-03-28T17:54:51.645Z,55.41
2023-03-28T17:57:18.701Z,55.06
2023-03-28T17:59:45.673Z,55.33
2023-03-28T18:02:12.684Z,55.18
2023-03-28T18:04:39.495Z,55.41
2023-03-28T18:07:15.752Z,55.26
2023-03-28T18:09:44.559Z,55.29
2023-03-28T18:12:12.707Z,55.18
2023-03-28T18:14:39.662Z,54.99
2023-03-28T18:17:06.753Z,55.02
2023-03-28T18:19:33.614Z,55.02
2023-03-28T18:22:00.784Z,55.21
2023-03-28T18:24:28.052Z,55.03
2023-03-28T18:26:55.179Z,55.18
2023-03-28T18:29:22.165Z,55.36
2023-03-28T18:31:49.579Z,55.12
2023-03-28T18:34:16.492Z,55.13
2023-03-28T18:36:43.961Z,55.26
2023-03-28T18:39:11.156Z,54.99
2023-03-28T18:41:38.033Z,55.28
2023-03-28T18:44:05.518Z,55.44
2023-03-28T18:46:33.959Z,54.98
2023-03-28T18:49:01.885Z,55.42
2023-03-28T18:51:28.977Z,55.10
2023-03-28T18:53:55.889Z,55.28
2023-03-28T18:56:22.911Z,55.54
2023-03-28T18:58:50.440Z,55.36
2023-03-28T19:01:18.390Z,55.08
2023-03-28T19:03:47.204Z,55.54
2023-03-28T19:06:15.791Z,55.38
2023-03-28T19:08:43.665Z,55.25
2023-03-28T19:11:16.750Z,55.80
2023-03-28T19:13:44.130Z,55.64
2023-03-28T19:16:13.314Z,55.40
2023-03-28T19:18:44.071Z,55.66
2023-03-28T19:21:12.566Z,55.23
2023-03-28T19:23:41.748Z,54.90
2023-03-28T19:26:12.693Z,55.47
2023-03-28T19:28:41.386Z,55.87
2023-03-28T19:31:12.204Z,56.20
2023-03-28T19:33:46.347Z,56.27
2023-03-28T19:36:14.582Z,55.76
2023-03-28T19:38:49.687Z,55.93
2023-03-28T19:41:21.404Z,55.92
2023-03-28T19:43:52.215Z,55.94
2023-03-28T19:46:30.741Z,55.69
2023-03-28T19:49:12.095Z,55.74
2023-03-28T19:51:42.442Z,56.08
2023-03-28T19:54:13.893Z,55.83
2023-03-28T19:56:43.227Z,56.21
2023-03-28T19:59:17.637Z,55.86
2023-03-28T20:01:49.167Z,55.93
2023-03-28T20:04:25.051Z,56.01
2023-03-28T20:06:59.516Z,56.33
2023-03-28T20:09:29.795Z,55.80
2023-03-28T20:12:01.970Z,56.16
2023-03-28T20:14:33.951Z,56.31
2023-03-28T20:17:04.253Z,55.77
2023-03-28T20:19:31.214Z,56.60
2023-03-28T20:21:58.114Z,56.44
2023-03-28T20:24:24.989Z,56.29
2023-03-28T20:26:52.351Z,56.16
2023-03-28T20:29:19.963Z,56.11
2023-03-28T20:31:49.896Z,56.35
2023-03-28T20:34:16.883Z,56.17
2023-03-28T20:36:46.500Z,55.94
2023-03-28T20:39:14.304Z,56.65
2023-03-28T20:41:41.500Z,56.42
2023-03-28T20:44:08.866Z,56.62
2023-03-28T20:46:39.417Z,56.34
2023-03-28T20:49:06.396Z,56.58
2023-03-28T20:51:37.541Z,56.24
2023-03-28T20:54:06.564Z,56.66
2023-03-28T20:56:33.403Z,56.64
2023-03-28T20:59:00.426Z,56.59
2023-03-28T21:01:30.149Z,56.24
2023-03-28T21:04:00.598Z,56.47
2023-03-28T21:06:36.579Z,56.19
2023-03-28T21:09:09.948Z,56.25
2023-03-28T21:11:38.143Z,56.67
2023-03-28T21:14:06.285Z,56.37
2023-03-28T21:16:33.283Z,56.99
2023-03-28T21:19:01.776Z,57.07
2023-03-28T21:21:29.982Z,56.90
2023-03-28T21:23:57.201Z,56.90
2023-03-28T21:26:24.786Z,57.04
2023-03-28T21:28:55.322Z,56.70
2023-03-28T21:31:28.274Z,56.68
2023-03-28T21:33:59.809Z,56.75
2023-03-28T21:36:27.947Z,56.93
2023-03-28T21:38:56.135Z,57.21
2023-03-28T21:41:23.053Z,57.08
2023-03-28T21:43:50.563Z,56.94
2023-03-28T21:46:18.875Z,56.63
2023-03-28T21:48:48.434Z,56.81
2023-03-28T21:51:17.280Z,57.08
2023-03-28T21:53:44.474Z,57.00
2023-03-28T21:56:14.237Z,57.44
2023-03-28T21:58:41.412Z,56.89
2023-03-28T22:01:08.692Z,57.02
2023-03-28T22:03:37.389Z,56.88
2023-03-28T22:06:05.032Z,57.57
2023-03-28T22:08:31.970Z,57.54
2023-03-28T22:11:02.470Z,57.96
2023-03-28T22:13:30.509Z,57.24
2023-03-28T22:16:01.074Z,57.20
2023-03-28T22:18:30.789Z,57.53
2023-03-28T22:21:02.754Z,57.44
2023-03-28T22:23:30.620Z,57.60
2023-03-28T22:25:58.579Z,57.37
2023-03-28T22:28:26.494Z,57.76
2023-03-28T22:30:55.197Z,57.88
2023-03-28T22:33:23.675Z,57.95
2023-03-28T22:35:51.769Z,58.01
2023-03-28T22:38:19.515Z,57.78
2023-03-28T22:40:47.790Z,58.37
2023-03-28T22:43:16.220Z,58.10
2023-03-28T22:45:43.551Z,57.61
2023-03-28T22:48:17.200Z,58.12
2023-03-28T22:50:44.628Z,58.34
2023-03-28T22:53:14.928Z,58.09
2023-03-28T22:55:43.699Z,58.01
2023-03-28T22:58:11.818Z,58.59
2023-03-28T23:00:38.946Z,58.27
2023-03-28T23:03:08.194Z,58.58
2023-03-28T23:05:35.721Z,58.63
2023-03-28T23:08:04.040Z,58.22
2023-03-28T23:10:32.018Z,58.50
2023-03-28T23:12:59.606Z,58.43
2023-03-28T23:15:26.917Z,58.82
2023-03-28T23:17:53.915Z,58.54
2023-03-28T23:20:20.925Z,58.59
2023-03-28T23:22:48.775Z,59.09
2023-03-28T23:25:18.620Z,58.91
2023-03-28T23:27:46.454Z,59.39
2023-03-28T23:30:14.496Z,58.92
2023-03-28T23:32:41.586Z,59.59
2023-03-28T23:35:10.482Z,59.80
2023-03-28T23:37:38.585Z,59.34
2023-03-28T23:40:10.660Z,60.12
2023-03-28T23:42:37.770Z,59.89
2023-03-28T23:45:05.150Z,59.40
2023-03-28T23:47:32.104Z,59.59
2023-03-28T23:49:59.520Z,59.87
2023-03-28T23:52:26.454Z,59.79
2023-03-28T23:54:53.328Z,59.67
2023-03-28T23:57:20.402Z,60.38
2023-03-28T23:59:47.393Z,60.08
